createdAt,value
2017-11-03T00:00:17.429Z,14.00
2017-11-03T00:02:45.697Z,9.37
2017-11-03T00:05:13.726Z,12.10
2017-11-03T00:07:41.607Z,9.83
2017-11-03T00:10:09.455Z,22.33
2017-11-03T00:12:37.337Z,14.87
2017-11-03T00:15:05.184Z,14.57
2017-11-03T00:17:33.044Z,20.50
2017-11-03T00:25:50.525Z,18.27
2017-11-03T00:31:18.434Z,19.93
2017-11-03T00:33:51.749Z,14.57
2017-11-03T00:42:07.829Z,20.07
2017-11-03T00:44:37.189Z,24.50
2017-11-03T00:47:06.519Z,27.37
2017-11-03T00:49:39.569Z,18.00
2017-11-03T00:55:15.433Z,21.17
2017-11-03T00:57:43.262Z,19.43
2017-11-03T01:00:11.108Z,19.67
2017-11-03T01:02:38.961Z,32.93
2017-11-03T01:05:06.813Z,28.73
2017-11-03T01:07:34.644Z,20.77
2017-11-03T01:10:02.509Z,26.10
2017-11-03T01:12:30.338Z,24.13
2017-11-03T01:14:58.186Z,27.47
2017-11-03T01:17:26.054Z,19.20
2017-11-03T01:19:53.864Z,23.03
2017-11-03T01:22:21.700Z,26.00
2017-11-03T01:24:49.577Z,25.10
2017-11-03T01:27:17.434Z,30.47
2017-11-03T01:29:45.240Z,27.53
2017-11-03T01:32:13.096Z,25.03
2017-11-03T01:34:40.937Z,29.20
2017-11-03T01:37:08.806Z,24.83
2017-11-03T01:39:36.636Z,25.70
2017-11-03T01:42:04.481Z,28.93
2017-11-03T01:44:32.309Z,26.57
2017-11-03T01:47:00.172Z,20.73
2017-11-03T01:49:28.029Z,34.73
2017-11-03T01:51:55.868Z,30.80
2017-11-03T01:54:23.717Z,30.70
2017-11-03T01:56:51.556Z,39.83
2017-11-03T01:59:19.383Z,44.83
2017-11-03T02:01:47.224Z,30.60
2017-11-03T02:04:15.081Z,41.47
2017-11-03T02:06:42.966Z,33.23
2017-11-03T02:09:10.821Z,28.60
2017-11-03T02:11:38.693Z,44.13
2017-11-03T02:14:06.547Z,33.90
2017-11-03T02:16:34.404Z,31.17
2017-11-03T02:19:02.222Z,24.10
2017-11-03T02:21:30.037Z,26.80
2017-11-03T02:23:57.849Z,24.17
2017-11-03T02:26:25.690Z,34.73
2017-11-03T02:28:53.528Z,32.93
2017-11-03T02:31:21.353Z,31.33
2017-11-03T02:33:49.843Z,34.33
2017-11-03T02:36:18.000Z,28.17
2017-11-03T02:38:46.325Z,31.07
2017-11-03T02:41:14.391Z,41.17
2017-11-03T02:43:42.241Z,28.80
2017-11-03T02:46:10.089Z,28.40
2017-11-03T02:48:40.207Z,32.63
2017-11-03T02:57:10.834Z,38.17
2017-11-03T03:03:45.874Z,30.40
2017-11-03T03:06:14.373Z,32.53
2017-11-03T03:08:42.589Z,45.53
2017-11-03T03:11:10.829Z,33.70
2017-11-03T03:13:39.195Z,33.37
2017-11-03T03:16:07.485Z,47.67
2017-11-03T03:18:35.822Z,32.80
2017-11-03T04:14:01.647Z,35.20
2017-11-03T04:16:29.881Z,40.50
2017-11-03T04:18:57.904Z,44.40
2017-11-03T04:21:26.041Z,42.33
2017-11-03T04:27:00.173Z,38.07
2017-11-03T04:48:28.028Z,38.13
2017-11-03T05:08:33.885Z,50.90
2017-11-03T05:14:11.637Z,54.23
2017-11-03T05:25:35.731Z,55.03
2017-11-03T05:28:03.635Z,53.23
2017-11-03T05:30:31.462Z,46.63
2017-11-03T05:32:59.328Z,60.17
2017-11-03T05:35:27.189Z,57.80
2017-11-03T05:37:55.102Z,63.70
2017-11-03T05:40:22.961Z,66.60
2017-11-03T05:42:50.789Z,62.07
2017-11-03T05:45:18.642Z,56.70
2017-11-03T05:47:46.477Z,51.23
2017-11-03T05:50:14.325Z,50.87
2017-11-03T05:52:42.189Z,62.10
2017-11-03T05:55:10.038Z,66.00
2017-11-03T05:57:37.863Z,93.40
2017-11-03T06:00:05.709Z,81.80
2017-11-03T06:02:33.560Z,145.47
2017-11-03T06:05:03.099Z,62.80
2017-11-03T06:07:31.568Z,74.50
2017-11-03T06:10:00.485Z,97.30
2017-11-03T06:12:28.556Z,71.80
2017-11-03T06:14:56.535Z,72.27
2017-11-03T06:17:24.860Z,51.87
2017-11-03T06:19:53.336Z,86.57
2017-11-03T06:22:21.642Z,112.87
2017-11-03T06:24:50.028Z,80.80
2017-11-03T06:42:02.648Z,114.03
2017-11-03T06:47:36.624Z,149.63
2017-11-03T06:50:05.070Z,84.27
2017-11-03T06:52:33.178Z,116.37
2017-11-03T06:55:02.864Z,130.27
2017-11-03T06:57:31.465Z,105.00
2017-11-03T07:00:00.252Z,148.67
2017-11-03T07:11:33.806Z,81.57
2017-11-03T07:14:01.676Z,101.30
2017-11-03T07:16:29.545Z,90.43
2017-11-03T07:18:57.387Z,75.57
2017-11-03T07:21:25.230Z,66.00
2017-11-03T07:23:57.751Z,75.70
2017-11-03T07:26:26.237Z,93.43
2017-11-03T07:28:54.491Z,69.13
2017-11-03T07:34:29.173Z,67.13
2017-11-03T07:36:57.068Z,69.00
2017-11-03T07:42:26.938Z,67.17
2017-11-03T07:45:01.007Z,90.07
2017-11-03T07:47:29.724Z,100.10
2017-11-03T07:55:44.485Z,102.77
2017-11-03T07:58:12.644Z,106.33
2017-11-03T08:03:28.878Z,134.00
2017-11-03T08:05:56.733Z,107.70
2017-11-03T08:08:24.597Z,133.43
2017-11-03T08:10:52.450Z,94.90
2017-11-03T08:13:20.309Z,102.67
2017-11-03T08:15:48.139Z,101.80
2017-11-03T08:18:15.968Z,121.57
2017-11-03T08:20:43.801Z,108.87
2017-11-03T08:23:11.624Z,112.43
2017-11-03T08:25:39.777Z,112.53
2017-11-03T08:28:07.618Z,102.37
2017-11-03T08:30:35.482Z,104.47
2017-11-03T08:33:03.304Z,118.57
2017-11-03T08:35:31.133Z,99.97
2017-11-03T08:37:58.989Z,82.57
2017-11-03T08:40:26.843Z,92.80
2017-11-03T08:42:54.684Z,103.17
2017-11-03T08:45:22.507Z,82.53
2017-11-03T08:47:50.337Z,104.60
2017-11-03T08:50:18.162Z,85.90
2017-11-03T08:52:45.984Z,94.17
2017-11-03T08:55:13.819Z,83.53
2017-11-03T08:57:41.684Z,81.80
2017-11-03T09:00:09.517Z,80.60
2017-11-03T09:02:37.369Z,83.20
2017-11-03T09:05:05.194Z,126.57
2017-11-03T09:07:33.056Z,96.23
2017-11-03T09:10:00.876Z,89.37
2017-11-03T09:12:28.685Z,77.23
2017-11-03T09:14:56.543Z,87.30
2017-11-03T09:17:24.381Z,77.90
2017-11-03T09:19:52.220Z,90.40
2017-11-03T09:22:20.056Z,84.60
2017-11-03T09:24:47.914Z,74.77
2017-11-03T09:27:15.785Z,85.47
2017-11-03T09:29:43.609Z,66.33
2017-11-03T09:32:11.428Z,66.93
2017-11-03T09:34:39.268Z,69.50
2017-11-03T09:37:07.081Z,64.77
2017-11-03T09:39:34.916Z,65.50
2017-11-03T09:42:02.733Z,59.23
2017-11-03T09:44:30.573Z,62.83
2017-11-03T09:46:58.417Z,47.63
2017-11-03T09:49:26.256Z,49.20
2017-11-03T09:51:54.066Z,54.77
2017-11-03T09:54:21.900Z,59.83
2017-11-03T09:56:49.746Z,51.93
2017-11-03T09:59:17.600Z,50.23
2017-11-03T10:01:45.429Z,54.73
2017-11-03T10:04:13.250Z,54.83
2017-11-03T10:06:41.112Z,47.43
2017-11-03T10:09:08.945Z,52.10
2017-11-03T10:11:36.755Z,63.80
2017-11-03T10:14:04.581Z,61.57
2017-11-03T10:16:32.425Z,53.97
2017-11-03T10:19:00.240Z,59.83
2017-11-03T10:21:28.067Z,55.77
2017-11-03T10:23:55.912Z,55.80
2017-11-03T10:26:23.762Z,59.60
2017-11-03T10:28:51.605Z,55.07
2017-11-03T10:31:19.473Z,49.17
2017-11-03T10:33:47.313Z,45.93
2017-11-03T10:36:15.150Z,49.83
2017-11-03T10:38:42.980Z,52.30
2017-11-03T10:41:10.813Z,67.67
2017-11-03T10:43:38.673Z,45.57
2017-11-03T10:46:06.494Z,47.67
2017-11-03T10:48:34.325Z,51.23
2017-11-03T10:51:02.165Z,38.30
2017-11-03T10:53:30.029Z,33.60
2017-11-03T10:55:57.877Z,31.53
2017-11-03T10:58:25.724Z,26.17
2017-11-03T11:00:53.554Z,32.70
2017-11-03T11:03:21.397Z,30.20
2017-11-03T11:05:49.220Z,45.33
2017-11-03T11:08:17.067Z,30.63
2017-11-03T11:10:44.905Z,29.90
2017-11-03T11:13:12.732Z,26.13
2017-11-03T11:15:40.576Z,37.17
2017-11-03T11:18:08.438Z,28.10
2017-11-03T11:20:36.265Z,31.20
2017-11-03T11:23:04.104Z,28.60
2017-11-03T11:25:31.942Z,31.27
2017-11-03T11:27:59.761Z,34.70
2017-11-03T11:30:27.588Z,26.40
2017-11-03T11:32:55.419Z,29.77
2017-11-03T11:35:23.285Z,31.70
2017-11-03T11:37:51.117Z,31.13
2017-11-03T11:40:18.945Z,30.30
2017-11-03T11:42:46.782Z,20.73
2017-11-03T11:45:14.629Z,18.33
2017-11-03T11:47:42.488Z,25.30
2017-11-03T11:50:10.355Z,27.57
2017-11-03T11:52:38.193Z,34.37
2017-11-03T11:55:06.022Z,19.43
2017-11-03T11:57:33.851Z,23.60
2017-11-03T12:00:01.719Z,27.50
2017-11-03T12:02:29.540Z,23.53
2017-11-03T12:04:57.377Z,25.87
2017-11-03T12:07:25.254Z,18.73
2017-11-03T12:09:53.109Z,21.90
2017-11-03T12:12:20.953Z,21.50
2017-11-03T12:14:48.772Z,21.17
2017-11-03T12:17:16.637Z,30.43
2017-11-03T12:19:44.487Z,17.93
2017-11-03T12:22:12.337Z,33.23
2017-11-03T12:24:40.160Z,24.53
2017-11-03T12:27:08.018Z,22.80
2017-11-03T12:29:35.867Z,34.40
2017-11-03T12:32:03.695Z,23.43
2017-11-03T12:34:31.529Z,28.63
2017-11-03T12:36:59.382Z,24.87
2017-11-03T12:39:27.193Z,18.17
2017-11-03T12:41:55.079Z,24.60
2017-11-03T12:44:22.992Z,27.60
2017-11-03T12:46:50.848Z,35.30
2017-11-03T12:49:18.713Z,29.53
2017-11-03T12:51:46.553Z,27.53
2017-11-03T12:54:14.393Z,25.27
2017-11-03T12:56:42.255Z,29.17
2017-11-03T12:59:10.080Z,22.83
2017-11-03T13:01:37.917Z,21.17
2017-11-03T13:04:05.762Z,26.50
2017-11-03T13:06:33.622Z,28.37
2017-11-03T13:09:01.479Z,30.60
2017-11-03T13:11:29.325Z,28.10
2017-11-03T13:13:57.212Z,26.70
2017-11-03T13:16:25.097Z,28.53
2017-11-03T13:18:52.943Z,31.13
2017-11-03T13:21:20.813Z,31.07
2017-11-03T13:23:48.673Z,31.77
2017-11-03T13:26:16.541Z,23.73
2017-11-03T13:28:44.413Z,22.80
2017-11-03T13:31:12.320Z,18.10
2017-11-03T13:33:40.185Z,19.43
2017-11-03T13:36:08.065Z,16.67
2017-11-03T13:38:35.921Z,21.90
2017-11-03T13:41:03.752Z,16.33
2017-11-03T13:43:31.595Z,22.97
2017-11-03T13:45:59.442Z,26.00
2017-11-03T13:48:27.317Z,22.37
2017-11-03T13:50:55.168Z,21.00
2017-11-03T13:53:23.004Z,21.33
2017-11-03T13:55:50.859Z,24.20
2017-11-03T13:58:18.701Z,30.13
2017-11-03T14:00:46.534Z,25.73
2017-11-03T14:03:14.381Z,23.13
2017-11-03T14:05:42.240Z,27.73
2017-11-03T14:08:10.114Z,30.23
2017-11-03T14:10:37.978Z,22.43
2017-11-03T14:13:05.821Z,35.07
2017-11-03T14:15:33.667Z,21.83
2017-11-03T14:18:01.510Z,25.03
2017-11-03T14:20:29.349Z,19.87
2017-11-03T14:22:57.173Z,29.97
2017-11-03T14:25:25.030Z,29.23
2017-11-03T14:27:52.848Z,27.80
2017-11-03T14:30:20.709Z,27.23
2017-11-03T14:32:48.562Z,26.13
2017-11-03T14:35:16.401Z,30.03
2017-11-03T14:37:44.231Z,31.63
2017-11-03T14:40:12.056Z,27.40
2017-11-03T14:42:39.896Z,19.70
2017-11-03T14:45:07.740Z,28.53
2017-11-03T14:47:35.572Z,24.60
2017-11-03T14:50:03.413Z,27.10
2017-11-03T14:52:31.245Z,29.03
2017-11-03T14:54:59.097Z,30.57
2017-11-03T14:57:28.679Z,23.07
2017-11-03T14:59:58.051Z,28.30
2017-11-03T15:02:25.888Z,20.13
2017-11-03T15:04:53.752Z,24.70
2017-11-03T15:07:21.649Z,23.67
2017-11-03T15:09:49.492Z,29.30
2017-11-03T15:12:17.319Z,19.90
2017-11-03T15:14:45.148Z,37.63
2017-11-03T15:17:12.986Z,32.93
2017-11-03T15:19:40.849Z,28.50
2017-11-03T15:22:08.964Z,32.93
2017-11-03T15:24:36.840Z,30.80
2017-11-03T15:27:04.685Z,38.27
2017-11-03T15:29:32.542Z,31.07
2017-11-03T15:32:00.388Z,29.23
2017-11-03T15:34:28.240Z,34.80
2017-11-03T15:36:56.094Z,24.73
2017-11-03T15:39:23.942Z,33.20
2017-11-03T15:41:51.771Z,36.17
2017-11-03T15:44:19.645Z,30.77
2017-11-03T15:46:47.477Z,27.13
2017-11-03T15:49:15.342Z,37.20
2017-11-03T15:51:43.200Z,38.00
2017-11-03T15:54:11.049Z,29.43
2017-11-03T15:56:38.889Z,40.03
2017-11-03T15:59:06.770Z,36.43
2017-11-03T16:01:34.632Z,30.10
2017-11-03T16:04:02.481Z,32.03
2017-11-03T16:06:30.324Z,32.70
2017-11-03T16:08:58.164Z,27.13
2017-11-03T16:11:26.013Z,29.67
2017-11-03T16:13:54.181Z,36.60
2017-11-03T16:16:22.032Z,43.27
2017-11-03T16:18:49.857Z,34.43
2017-11-03T16:21:17.724Z,40.20
2017-11-03T16:23:45.566Z,42.73
2017-11-03T16:26:13.445Z,29.70
2017-11-03T16:28:41.292Z,26.63
2017-11-03T16:31:09.140Z,36.23
2017-11-03T16:33:36.973Z,33.90
2017-11-03T16:36:04.812Z,39.57
2017-11-03T16:38:32.657Z,39.47
2017-11-03T16:41:00.517Z,29.97
2017-11-03T16:43:28.370Z,30.90
2017-11-03T16:45:56.237Z,33.43
2017-11-03T16:48:24.081Z,26.73
2017-11-03T16:50:51.925Z,27.30
2017-11-03T16:53:19.772Z,28.17
2017-11-03T16:55:47.586Z,28.90
2017-11-03T16:58:15.449Z,80.27
2017-11-03T17:00:43.311Z,34.37
2017-11-03T17:03:11.172Z,35.43
2017-11-03T17:05:38.998Z,33.17
2017-11-03T17:08:06.825Z,28.63
2017-11-03T17:10:34.678Z,28.30
2017-11-03T17:13:02.537Z,23.33
2017-11-03T17:15:30.380Z,26.90
2017-11-03T17:17:58.225Z,25.87
2017-11-03T17:20:26.073Z,26.90
2017-11-03T17:22:53.897Z,37.17
2017-11-03T17:25:21.739Z,31.50
2017-11-03T17:27:49.554Z,34.70
2017-11-03T17:30:17.361Z,28.40
2017-11-03T17:32:45.205Z,37.30
2017-11-03T17:35:13.021Z,29.80
2017-11-03T17:37:40.860Z,33.93
2017-11-03T17:40:08.705Z,28.20
2017-11-03T17:42:36.541Z,34.67
2017-11-03T17:45:04.389Z,28.63
2017-11-03T17:47:32.243Z,26.73
2017-11-03T17:50:00.093Z,33.57
2017-11-03T17:52:27.932Z,27.27
2017-11-03T17:54:55.805Z,26.40
2017-11-03T17:57:23.672Z,35.20
2017-11-03T17:59:51.541Z,30.33
2017-11-03T18:02:19.404Z,36.47
2017-11-03T18:04:47.273Z,41.87
2017-11-03T18:07:15.094Z,33.70
2017-11-03T18:09:42.948Z,30.97
2017-11-03T18:12:10.797Z,41.17
2017-11-03T18:14:38.619Z,42.07
2017-11-03T18:17:06.457Z,39.50
2017-11-03T18:19:34.275Z,45.90
2017-11-03T18:22:02.138Z,45.10
2017-11-03T18:24:29.959Z,35.47
2017-11-03T18:26:57.804Z,43.27
2017-11-03T18:29:25.636Z,43.90
2017-11-03T18:31:53.475Z,33.00
2017-11-03T18:34:21.316Z,38.97
2017-11-03T18:36:49.166Z,37.33
2017-11-03T18:39:17.013Z,34.10
2017-11-03T18:41:44.848Z,32.23
2017-11-03T18:44:12.704Z,36.63
2017-11-03T18:46:40.549Z,39.83
2017-11-03T18:49:08.377Z,37.30
2017-11-03T18:51:36.213Z,30.53
2017-11-03T18:54:04.051Z,30.63
2017-11-03T18:56:31.888Z,37.77
2017-11-03T18:58:59.716Z,41.67
2017-11-03T19:01:27.556Z,52.00
2017-11-03T19:03:55.381Z,31.87
2017-11-03T19:06:23.226Z,274.80
2017-11-03T19:08:51.061Z,213.23
2017-11-03T19:11:18.897Z,47.90
2017-11-03T19:13:46.724Z,38.67
2017-11-03T19:16:14.565Z,50.43
2017-11-03T19:18:42.422Z,52.33
2017-11-03T19:21:10.244Z,41.50
2017-11-03T19:23:38.061Z,59.03
2017-11-03T19:26:05.912Z,57.07
2017-11-03T19:28:33.716Z,62.87
2017-11-03T19:31:01.537Z,51.33
2017-11-03T19:33:29.374Z,54.20
2017-11-03T19:35:57.193Z,61.30
2017-11-03T19:38:25.030Z,52.03
2017-11-03T19:40:52.845Z,58.87
2017-11-03T19:43:20.685Z,54.23
2017-11-03T19:45:48.508Z,58.83
2017-11-03T19:48:16.341Z,50.00
2017-11-03T19:50:44.152Z,55.73
2017-11-03T19:53:11.976Z,53.87
2017-11-03T19:55:40.110Z,65.40
2017-11-03T19:58:07.933Z,56.87
2017-11-03T20:00:35.776Z,70.43
2017-11-03T20:03:03.620Z,62.23
2017-11-03T20:05:31.453Z,72.23
2017-11-03T20:07:59.328Z,64.20
2017-11-03T20:10:27.157Z,63.80
2017-11-03T20:12:54.996Z,63.63
2017-11-03T20:15:22.808Z,78.37
2017-11-03T20:17:50.628Z,63.40
2017-11-03T20:20:18.469Z,62.73
2017-11-03T20:22:46.280Z,66.80
2017-11-03T20:25:14.124Z,71.87
2017-11-03T20:27:41.957Z,79.60
2017-11-03T20:30:10.114Z,75.47
2017-11-03T20:32:37.945Z,58.83
2017-11-03T20:35:05.774Z,75.33
2017-11-03T20:37:33.679Z,82.07
2017-11-03T20:40:01.502Z,82.30
2017-11-03T20:42:29.345Z,77.13
2017-11-03T20:44:57.178Z,80.97
2017-11-03T20:47:24.993Z,82.17
2017-11-03T20:49:52.810Z,80.50
2017-11-03T20:52:20.645Z,76.47
2017-11-03T20:54:48.501Z,90.87
2017-11-03T20:57:16.333Z,77.80
2017-11-03T20:59:44.161Z,91.73
2017-11-03T21:02:11.977Z,86.10
2017-11-03T21:04:39.824Z,83.80
2017-11-03T21:07:07.640Z,91.33
2017-11-03T21:09:35.456Z,89.90
2017-11-03T21:12:03.269Z,90.60
2017-11-03T21:14:31.098Z,88.93
2017-11-03T21:16:58.922Z,85.17
2017-11-03T21:19:26.752Z,100.57
2017-11-03T21:21:54.605Z,84.57
2017-11-03T21:24:22.408Z,98.87
2017-11-03T21:26:50.242Z,93.53
2017-11-03T21:29:18.069Z,89.90
2017-11-03T21:31:45.897Z,93.50
2017-11-03T21:34:13.756Z,93.20
2017-11-03T21:36:41.621Z,101.87
2017-11-03T21:39:09.493Z,94.87
2017-11-03T21:41:37.316Z,112.63
2017-11-03T21:44:05.132Z,100.20
2017-11-03T21:46:32.985Z,100.87
2017-11-03T21:49:00.825Z,107.67
2017-11-03T21:51:28.673Z,103.33
2017-11-03T21:53:56.513Z,104.80
2017-11-03T21:56:24.354Z,89.97
2017-11-03T21:58:52.272Z,107.20
2017-11-03T22:01:20.088Z,97.20
2017-11-03T22:03:47.966Z,109.17
2017-11-03T22:06:15.821Z,105.83
2017-11-03T22:08:43.684Z,101.90
2017-11-03T22:11:11.529Z,110.97
2017-11-03T22:13:39.382Z,93.97
2017-11-03T22:16:10.377Z,104.10
2017-11-03T22:18:38.252Z,103.57
2017-11-03T22:21:06.092Z,105.40
2017-11-03T22:26:38.501Z,108.30
2017-11-03T22:29:06.369Z,109.57
2017-11-03T22:31:34.233Z,112.07
2017-11-03T22:34:02.098Z,104.60
2017-11-03T22:36:29.978Z,117.63
2017-11-03T22:38:57.829Z,116.10
2017-11-03T22:41:25.663Z,108.97
2017-11-03T22:43:53.502Z,109.50
2017-11-03T22:46:21.329Z,109.83
2017-11-03T22:48:49.162Z,104.33
2017-11-03T22:51:17.016Z,100.03
2017-11-03T22:53:44.869Z,111.93
2017-11-03T22:56:12.734Z,105.00
2017-11-03T22:58:40.596Z,120.47
2017-11-03T23:01:08.464Z,116.27
2017-11-03T23:03:36.333Z,111.63
2017-11-03T23:06:04.169Z,115.87
2017-11-03T23:08:32.032Z,107.53
2017-11-03T23:10:59.881Z,108.30
2017-11-03T23:13:27.711Z,111.73
2017-11-03T23:15:55.532Z,134.17
2017-11-03T23:18:23.365Z,110.20
2017-11-03T23:20:51.206Z,110.83
2017-11-03T23:23:19.054Z,121.00
2017-11-03T23:25:46.925Z,110.63
2017-11-03T23:28:14.789Z,108.93
2017-11-03T23:30:42.664Z,119.07
2017-11-03T23:33:10.516Z,121.40
2017-11-03T23:35:38.383Z,108.50
2017-11-03T23:38:06.251Z,124.43
2017-11-03T23:40:34.089Z,116.87
2017-11-03T23:43:01.925Z,129.57
2017-11-03T23:45:29.751Z,101.07
2017-11-03T23:47:57.613Z,115.20
2017-11-03T23:50:25.467Z,113.00
2017-11-03T23:52:53.315Z,107.03
2017-11-03T23:55:21.202Z,123.17
2017-11-03T23:57:49.033Z,108.93
